sensor_id;sensor_type;location;lat;lon;timestamp;pressure;altitude;pressure_sealevel;temperature;humidity
78843;BME280;70542;53.774;-0.352;2023-09-07T00:00:14;102100;;;14;65
78843;BME280;70542;53.774;-0.352;2023-09-07T00:06:02;102090;;;17;57
78843;BME280;70542;53.774;-0.352;2023-09-07T00:11:50;102070;;;19;50
78843;BME280;70542;53.774;-0.352;2023-09-07T00:17:29;102080;;;15;59
78843;BME280;70542;53.774;-0.352;2023-09-07T00:23:08;102080;;;17;57
78843;BME280;70542;53.774;-0.352;2023-09-07T00:28:46;102080;;;18;53
78843;BME280;70542;53.774;-0.352;2023-09-07T00:34:30;102070;;;15;58
78843;BME280;70542;53.774;-0.352;2023-09-07T00:40:10;102040;;;17;55
78843;BME280;70542;53.774;-0.352;2023-09-07T00:45:49;102050;;;18;50
78843;BME280;70542;53.774;-0.352;2023-09-07T00:51:28;102070;;;19;50
78843;BME280;70542;53.774;-0.352;2023-09-07T00:57:07;102060;;;18;53
78843;BME280;70542;53.774;-0.352;2023-09-07T01:02:46;102070;;;17;57
78843;BME280;70542;53.774;-0.352;2023-09-07T01:08:35;102070;;;15;62
78843;BME280;70542;53.774;-0.352;2023-09-07T01:14:19;102060;;;15;59
78843;BME280;70542;53.774;-0.352;2023-09-07T01:19:59;102040;;;20;50
78843;BME280;70542;53.774;-0.352;2023-09-07T01:25:42;102040;;;17;53
78843;BME280;70542;53.774;-0.352;2023-09-07T01:31:27;102040;;;17;53
78843;BME280;70542;53.774;-0.352;2023-09-07T01:37:06;102050;;;20;48
78843;BME280;70542;53.774;-0.352;2023-09-07T01:42:46;102050;;;17;54
78843;BME280;70542;53.774;-0.352;2023-09-07T01:48:25;102040;;;17;55
78843;BME280;70542;53.774;-0.352;2023-09-07T01:54:04;102040;;;19;50
78843;BME280;70542;53.774;-0.352;2023-09-07T01:59:47;102040;;;18;54
78843;BME280;70542;53.774;-0.352;2023-09-07T02:05:26;102050;;;19;52
78843;BME280;70542;53.774;-0.352;2023-09-07T02:11:05;102060;;;17;55
78843;BME280;70542;53.774;-0.352;2023-09-07T02:16:44;102070;;;17;55
78843;BME280;70542;53.774;-0.352;2023-09-07T02:22:22;102060;;;19;51
78843;BME280;70542;53.774;-0.352;2023-09-07T02:28:06;102080;;;19;50
78843;BME280;70542;53.774;-0.352;2023-09-07T02:33:45;102080;;;18;54
78843;BME280;70542;53.774;-0.352;2023-09-07T02:39:25;102080;;;17;53
78843;BME280;70542;53.774;-0.352;2023-09-07T02:45:06;102070;;;18;53
78843;BME280;70542;53.774;-0.352;2023-09-07T02:50:45;102060;;;18;53
78843;BME280;70542;53.774;-0.352;2023-09-07T02:56:24;102070;;;20;47
78843;BME280;70542;53.774;-0.352;2023-09-07T03:02:03;102050;;;17;53
78843;BME280;70542;53.774;-0.352;2023-09-07T03:07:45;102050;;;20;48
78843;BME280;70542;53.774;-0.352;2023-09-07T03:13:24;102060;;;21;46
78843;BME280;70542;53.774;-0.352;2023-09-07T03:19:02;102050;;;20;46
78843;BME280;70542;53.774;-0.352;2023-09-07T03:24:41;102060;;;20;48
78843;BME280;70542;53.774;-0.352;2023-09-07T03:30:25;102060;;;21;46
78843;BME280;70542;53.774;-0.352;2023-09-07T03:36:05;102050;;;18;51
78843;BME280;70542;53.774;-0.352;2023-09-07T03:41:49;102060;;;21;45
78843;BME280;70542;53.774;-0.352;2023-09-07T03:47:28;102050;;;19;48
78843;BME280;70542;53.774;-0.352;2023-09-07T03:53:07;102050;;;17;52
78843;BME280;70542;53.774;-0.352;2023-09-07T03:58:46;102060;;;20;48
78843;BME280;70542;53.774;-0.352;2023-09-07T04:04:30;102060;;;17;52
78843;BME280;70542;53.774;-0.352;2023-09-07T04:10:09;102060;;;17;52
78843;BME280;70542;53.774;-0.352;2023-09-07T04:15:52;102060;;;19;48
78843;BME280;70542;53.774;-0.352;2023-09-07T04:21:31;102060;;;21;45
78843;BME280;70542;53.774;-0.352;2023-09-07T04:27:15;102060;;;18;52
78843;BME280;70542;53.774;-0.352;2023-09-07T04:32:53;102070;;;18;51
78843;BME280;70542;53.774;-0.352;2023-09-07T04:38:32;102060;;;18;51
78843;BME280;70542;53.774;-0.352;2023-09-07T04:44:11;102060;;;17;55
78843;BME280;70542;53.774;-0.352;2023-09-07T04:49:50;102050;;;16;57
78843;BME280;70542;53.774;-0.352;2023-09-07T04:55:28;102050;;;19;50
78843;BME280;70542;53.774;-0.352;2023-09-07T05:01:12;102050;;;16;55
78843;BME280;70542;53.774;-0.352;2023-09-07T05:06:51;102050;;;17;54
78843;BME280;70542;53.774;-0.352;2023-09-07T05:12:30;102050;;;19;51
78843;BME280;70542;53.774;-0.352;2023-09-07T05:18:09;102050;;;16;56
78843;BME280;70542;53.774;-0.352;2023-09-07T05:23:48;102050;;;16;57
78843;BME280;70542;53.774;-0.352;2023-09-07T05:29:27;102040;;;18;53
78843;BME280;70542;53.774;-0.352;2023-09-07T05:35:06;102040;;;19;50
78843;BME280;70542;53.774;-0.352;2023-09-07T05:40:45;102040;;;20;49
78843;BME280;70542;53.774;-0.352;2023-09-07T05:46:29;102040;;;16;55
78843;BME280;70542;53.774;-0.352;2023-09-07T05:52:09;102030;;;17;53
78843;BME280;70542;53.774;-0.352;2023-09-07T05:57:49;102030;;;16;56
78843;BME280;70542;53.774;-0.352;2023-09-07T06:03:33;102040;;;16;58
78843;BME280;70542;53.774;-0.352;2023-09-07T06:09:12;102040;;;17;54
78843;BME280;70542;53.774;-0.352;2023-09-07T06:14:51;102030;;;19;51
78843;BME280;70542;53.774;-0.352;2023-09-07T06:20:30;102020;;;17;54
78843;BME280;70542;53.774;-0.352;2023-09-07T06:26:09;102040;;;19;49
78843;BME280;70542;53.774;-0.352;2023-09-07T06:31:47;102040;;;18;52
78843;BME280;70542;53.774;-0.352;2023-09-07T06:37:31;102040;;;19;50
78843;BME280;70542;53.774;-0.352;2023-09-07T06:43:15;102040;;;20;49
78843;BME280;70542;53.774;-0.352;2023-09-07T06:49:04;102030;;;21;48
78843;BME280;70542;53.774;-0.352;2023-09-07T06:54:43;102040;;;20;48
78843;BME280;70542;53.774;-0.352;2023-09-07T07:00:22;102040;;;18;52
78843;BME280;70542;53.774;-0.352;2023-09-07T07:06:01;102040;;;17;55
78843;BME280;70542;53.774;-0.352;2023-09-07T07:11:40;102060;;;16;57
78843;BME280;70542;53.774;-0.352;2023-09-07T07:17:18;102060;;;18;54
78843;BME280;70542;53.774;-0.352;2023-09-07T07:22:57;102070;;;19;52
78843;BME280;70542;53.774;-0.352;2023-09-07T07:28:42;102070;;;20;51
78843;BME280;70542;53.774;-0.352;2023-09-07T07:34:20;102070;;;21;49
78843;BME280;70542;53.774;-0.352;2023-09-07T07:39:59;102070;;;20;50
78843;BME280;70542;53.774;-0.352;2023-09-07T07:45:38;102070;;;20;50
78843;BME280;70542;53.774;-0.352;2023-09-07T07:51:16;102060;;;19;54
78843;BME280;70542;53.774;-0.352;2023-09-07T07:57:02;102060;;;20;52
78843;BME280;70542;53.774;-0.352;2023-09-07T08:02:45;102050;;;20;50
78843;BME280;70542;53.774;-0.352;2023-09-07T08:08:33;102050;;;22;47
78843;BME280;70542;53.774;-0.352;2023-09-07T08:14:16;102050;;;23;46
78843;BME280;70542;53.774;-0.352;2023-09-07T08:19:55;102050;;;22;47
78843;BME280;70542;53.774;-0.352;2023-09-07T08:25:35;102040;;;23;46
78843;BME280;70542;53.774;-0.352;2023-09-07T08:31:14;102040;;;23;46
78843;BME280;70542;53.774;-0.352;2023-09-07T08:37:05;102050;;;24;46
78843;BME280;70542;53.774;-0.352;2023-09-07T08:42:50;102050;;;24;45
78843;BME280;70542;53.774;-0.352;2023-09-07T08:48:35;102040;;;23;45
78843;BME280;70542;53.774;-0.352;2023-09-07T08:54:14;102040;;;23;44
78843;BME280;70542;53.774;-0.352;2023-09-07T08:59:53;102040;;;23;44
78843;BME280;70542;53.774;-0.352;2023-09-07T09:05:33;102040;;;23;47
78843;BME280;70542;53.774;-0.352;2023-09-07T09:11:18;102040;;;25;42
78843;BME280;70542;53.774;-0.352;2023-09-07T09:16:57;102040;;;25;42
78843;BME280;70542;53.774;-0.352;2023-09-07T09:22:35;102040;;;23;46
78843;BME280;70542;53.774;-0.352;2023-09-07T09:28:14;102030;;;24;45
78843;BME280;70542;53.774;-0.352;2023-09-07T09:33:55;102020;;;23;46
78843;BME280;70542;53.774;-0.352;2023-09-07T09:39:35;102020;;;24;44
78843;BME280;70542;53.774;-0.352;2023-09-07T09:45:19;102020;;;25;42
78843;BME280;70542;53.774;-0.352;2023-09-07T09:50:59;102030;;;26;41
78843;BME280;70542;53.774;-0.352;2023-09-07T09:56:38;102040;;;25;43
78843;BME280;70542;53.774;-0.352;2023-09-07T10:02:17;102040;;;23;45
78843;BME280;70542;53.774;-0.352;2023-09-07T10:08:01;102030;;;25;43
78843;BME280;70542;53.774;-0.352;2023-09-07T10:13:40;102020;;;23;47
78843;BME280;70542;53.774;-0.352;2023-09-07T10:19:20;102020;;;26;42
78843;BME280;70542;53.774;-0.352;2023-09-07T10:24:59;102020;;;25;42
78843;BME280;70542;53.774;-0.352;2023-09-07T10:30:38;102010;;;24;44
78843;BME280;70542;53.774;-0.352;2023-09-07T10:36:21;101990;;;26;43
78843;BME280;70542;53.774;-0.352;2023-09-07T10:42:00;102000;;;24;43
78843;BME280;70542;53.774;-0.352;2023-09-07T10:47:41;101990;;;24;43
78843;BME280;70542;53.774;-0.352;2023-09-07T10:53:25;101980;;;25;42
78843;BME280;70542;53.774;-0.352;2023-09-07T10:59:04;101980;;;25;43
78843;BME280;70542;53.774;-0.352;2023-09-07T11:04:43;101970;;;25;42
78843;BME280;70542;53.774;-0.352;2023-09-07T11:10:22;101970;;;25;40
78843;BME280;70542;53.774;-0.352;2023-09-07T11:16:08;101970;;;24;43
78843;BME280;70542;53.774;-0.352;2023-09-07T11:21:46;101970;;;26;40
78843;BME280;70542;53.774;-0.352;2023-09-07T11:27:25;101960;;;25;41
78843;BME280;70542;53.774;-0.352;2023-09-07T11:33:11;101960;;;25;42
78843;BME280;70542;53.774;-0.352;2023-09-07T11:38:50;101950;;;27;38
78843;BME280;70542;53.774;-0.352;2023-09-07T11:44:35;101940;;;25;41
78843;BME280;70542;53.774;-0.352;2023-09-07T11:50:23;101940;;;25;42
78843;BME280;70542;53.774;-0.352;2023-09-07T11:56:02;101940;;;28;36
78843;BME280;70542;53.774;-0.352;2023-09-07T12:01:46;101930;;;25;39
78843;BME280;70542;53.774;-0.352;2023-09-07T12:07:24;101930;;;26;38
78843;BME280;70542;53.774;-0.352;2023-09-07T12:13:08;101930;;;27;36
78843;BME280;70542;53.774;-0.352;2023-09-07T12:18:48;101920;;;28;34
78843;BME280;70542;53.774;-0.352;2023-09-07T12:24:26;101920;;;26;36
78843;BME280;70542;53.774;-0.352;2023-09-07T12:30:06;101920;;;28;35
78843;BME280;70542;53.774;-0.352;2023-09-07T12:35:45;101920;;;27;36
78843;BME280;70542;53.774;-0.352;2023-09-07T12:41:29;101920;;;27;36
78843;BME280;70542;53.774;-0.352;2023-09-07T12:47:08;101920;;;26;37
78843;BME280;70542;53.774;-0.352;2023-09-07T12:52:47;101920;;;29;35
78843;BME280;70542;53.774;-0.352;2023-09-07T12:58:25;101920;;;28;35
78843;BME280;70542;53.774;-0.352;2023-09-07T13:04:04;101920;;;29;34
78843;BME280;70542;53.774;-0.352;2023-09-07T13:09:43;101920;;;27;38
78843;BME280;70542;53.774;-0.352;2023-09-07T13:15:22;101910;;;29;36
78843;BME280;70542;53.774;-0.352;2023-09-07T13:21:01;101900;;;26;39
78843;BME280;70542;53.774;-0.352;2023-09-07T13:26:40;101890;;;29;36
78843;BME280;70542;53.774;-0.352;2023-09-07T13:32:18;101890;;;27;39
78843;BME280;70542;53.774;-0.352;2023-09-07T13:37:57;101890;;;27;37
78843;BME280;70542;53.774;-0.352;2023-09-07T13:43:36;101880;;;27;38
78843;BME280;70542;53.774;-0.352;2023-09-07T13:49:15;101880;;;26;39
78843;BME280;70542;53.774;-0.352;2023-09-07T13:54:54;101870;;;28;36
78843;BME280;70542;53.774;-0.352;2023-09-07T14:00:33;101870;;;28;36
78843;BME280;70542;53.774;-0.352;2023-09-07T14:06:11;101870;;;27;37
78843;BME280;70542;53.774;-0.352;2023-09-07T14:11:50;101870;;;28;37
78843;BME280;70542;53.774;-0.352;2023-09-07T14:17:28;101860;;;29;36
78843;BME280;70542;53.774;-0.352;2023-09-07T14:23:07;101860;;;27;37
78843;BME280;70542;53.774;-0.352;2023-09-07T14:28:46;101860;;;28;36
78843;BME280;70542;53.774;-0.352;2023-09-07T14:34:25;101860;;;27;37
78843;BME280;70542;53.774;-0.352;2023-09-07T14:40:04;101860;;;26;38
78843;BME280;70542;53.774;-0.352;2023-09-07T14:45:44;101860;;;27;37
78843;BME280;70542;53.774;-0.352;2023-09-07T14:51:24;101860;;;28;37
78843;BME280;70542;53.774;-0.352;2023-09-07T14:57:06;101850;;;27;38
78843;BME280;70542;53.774;-0.352;2023-09-07T15:03:00;101850;;;27;36
78843;BME280;70542;53.774;-0.352;2023-09-07T15:08:39;101850;;;28;35
78843;BME280;70542;53.774;-0.352;2023-09-07T15:14:29;101840;;;28;36
78843;BME280;70542;53.774;-0.352;2023-09-07T15:20:09;101840;;;26;40
78843;BME280;70542;53.774;-0.352;2023-09-07T15:25:52;101830;;;27;38
78843;BME280;70542;53.774;-0.352;2023-09-07T15:31:31;101830;;;27;37
78843;BME280;70542;53.774;-0.352;2023-09-07T15:37:11;101810;;;28;37
78843;BME280;70542;53.774;-0.352;2023-09-07T15:42:49;101810;;;26;39
78843;BME280;70542;53.774;-0.352;2023-09-07T15:48:28;101800;;;25;41
78843;BME280;70542;53.774;-0.352;2023-09-07T15:54:09;101800;;;26;40
78843;BME280;70542;53.774;-0.352;2023-09-07T15:59:47;101800;;;26;39
78843;BME280;70542;53.774;-0.352;2023-09-07T16:05:32;101800;;;26;39
78843;BME280;70542;53.774;-0.352;2023-09-07T16:11:11;101790;;;26;39
78843;BME280;70542;53.774;-0.352;2023-09-07T16:16:50;101780;;;28;37
78843;BME280;70542;53.774;-0.352;2023-09-07T16:22:30;101780;;;28;36
78843;BME280;70542;53.774;-0.352;2023-09-07T16:28:09;101780;;;27;38
78843;BME280;70542;53.774;-0.352;2023-09-07T16:33:50;101780;;;27;39
78843;BME280;70542;53.774;-0.352;2023-09-07T16:39:29;101780;;;28;36
78843;BME280;70542;53.774;-0.352;2023-09-07T16:45:08;101770;;;25;41
78843;BME280;70542;53.774;-0.352;2023-09-07T16:50:47;101750;;;26;39
78843;BME280;70542;53.774;-0.352;2023-09-07T16:56:26;101750;;;25;41
78843;BME280;70542;53.774;-0.352;2023-09-07T17:02:04;101740;;;25;41
78843;BME280;70542;53.774;-0.352;2023-09-07T17:07:43;101740;;;25;42
78843;BME280;70542;53.774;-0.352;2023-09-07T17:13:22;101750;;;23;45
78843;BME280;70542;53.774;-0.352;2023-09-07T17:19:04;101740;;;23;44
78843;BME280;70542;53.774;-0.352;2023-09-07T17:24:43;101750;;;24;43
78843;BME280;70542;53.774;-0.352;2023-09-07T17:30:21;101750;;;24;44
78843;BME280;70542;53.774;-0.352;2023-09-07T17:36:05;101760;;;24;43
78843;BME280;70542;53.774;-0.352;2023-09-07T17:41:54;101770;;;23;45
78843;BME280;70542;53.774;-0.352;2023-09-07T17:47:33;101770;;;23;47
78843;BME280;70542;53.774;-0.352;2023-09-07T17:53:11;101770;;;22;48
78843;BME280;70542;53.774;-0.352;2023-09-07T17:58:54;101770;;;23;47
78843;BME280;70542;53.774;-0.352;2023-09-07T18:28:57;101780;;;24;44
78843;BME280;70542;53.774;-0.352;2023-09-07T18:34:36;101790;;;23;46
78843;BME280;70542;53.774;-0.352;2023-09-07T18:40:15;101790;;;21;49
78843;BME280;70542;53.774;-0.352;2023-09-07T18:45:54;101790;;;21;49
78843;BME280;70542;53.774;-0.352;2023-09-07T18:51:33;101800;;;21;50
78843;BME280;70542;53.774;-0.352;2023-09-07T18:57:11;101790;;;21;50
78843;BME280;70542;53.774;-0.352;2023-09-07T19:02:50;101800;;;20;52
78843;BME280;70542;53.774;-0.352;2023-09-07T19:08:29;101800;;;21;50
78843;BME280;70542;53.774;-0.352;2023-09-07T19:14:13;101790;;;22;49
78843;BME280;70542;53.774;-0.352;2023-09-07T19:19:57;101780;;;21;49
78843;BME280;70542;53.774;-0.352;2023-09-07T19:25:36;101770;;;22;48
78843;BME280;70542;53.774;-0.352;2023-09-07T19:31:21;101770;;;20;53
78843;BME280;70542;53.774;-0.352;2023-09-07T19:37:00;101780;;;21;49
78843;BME280;70542;53.774;-0.352;2023-09-07T19:42:39;101770;;;22;49
78843;BME280;70542;53.774;-0.352;2023-09-07T19:48:23;101760;;;20;52
78843;BME280;70542;53.774;-0.352;2023-09-07T19:54:02;101780;;;21;49
78843;BME280;70542;53.774;-0.352;2023-09-07T19:59:42;101790;;;23;47
78843;BME280;70542;53.774;-0.352;2023-09-07T20:05:21;101790;;;22;47
78843;BME280;70542;53.774;-0.352;2023-09-07T20:11:04;101790;;;20;52
78843;BME280;70542;53.774;-0.352;2023-09-07T20:16:44;101800;;;22;47
78843;BME280;70542;53.774;-0.352;2023-09-07T20:22:23;101800;;;22;48
78843;BME280;70542;53.774;-0.352;2023-09-07T20:28:02;101800;;;23;47
78843;BME280;70542;53.774;-0.352;2023-09-07T20:33:41;101800;;;21;50
78843;BME280;70542;53.774;-0.352;2023-09-07T20:39:20;101800;;;20;51
78843;BME280;70542;53.774;-0.352;2023-09-07T20:44:59;101800;;;20;51
78843;BME280;70542;53.774;-0.352;2023-09-07T20:50:42;101790;;;20;52
78843;BME280;70542;53.774;-0.352;2023-09-07T20:56:21;101800;;;20;52
78843;BME280;70542;53.774;-0.352;2023-09-07T21:02:00;101780;;;19;55
78843;BME280;70542;53.774;-0.352;2023-09-07T21:07:50;101780;;;20;51
78843;BME280;70542;53.774;-0.352;2023-09-07T21:13:33;101790;;;21;48
78843;BME280;70542;53.774;-0.352;2023-09-07T21:19:12;101790;;;20;51
78843;BME280;70542;53.774;-0.352;2023-09-07T21:24:51;101790;;;21;49
78843;BME280;70542;53.774;-0.352;2023-09-07T21:30:40;101790;;;22;46
78843;BME280;70542;53.774;-0.352;2023-09-07T21:36:32;101790;;;21;48
78843;BME280;70542;53.774;-0.352;2023-09-07T21:42:11;101790;;;20;52
78843;BME280;70542;53.774;-0.352;2023-09-07T21:47:49;101790;;;21;50
78843;BME280;70542;53.774;-0.352;2023-09-07T21:53:29;101780;;;21;49
78843;BME280;70542;53.774;-0.352;2023-09-07T21:59:13;101780;;;22;47
78843;BME280;70542;53.774;-0.352;2023-09-07T22:04:57;101780;;;22;47
78843;BME280;70542;53.774;-0.352;2023-09-07T22:10:37;101780;;;22;48
78843;BME280;70542;53.774;-0.352;2023-09-07T22:16:15;101790;;;18;55
78843;BME280;70542;53.774;-0.352;2023-09-07T22:21:54;101790;;;21;50
78843;BME280;70542;53.774;-0.352;2023-09-07T22:27:33;101790;;;21;49
78843;BME280;70542;53.774;-0.352;2023-09-07T22:33:12;101790;;;21;49
78843;BME280;70542;53.774;-0.352;2023-09-07T22:38:56;101790;;;22;47
78843;BME280;70542;53.774;-0.352;2023-09-07T22:44:35;101790;;;22;47
78843;BME280;70542;53.774;-0.352;2023-09-07T22:50:14;101780;;;21;50
78843;BME280;70542;53.774;-0.352;2023-09-07T22:55:58;101790;;;20;51
78843;BME280;70542;53.774;-0.352;2023-09-07T23:01:46;101800;;;17;58
78843;BME280;70542;53.774;-0.352;2023-09-07T23:07:25;101800;;;20;53
78843;BME280;70542;53.774;-0.352;2023-09-07T23:13:04;101820;;;17;58
78843;BME280;70542;53.774;-0.352;2023-09-07T23:18:43;101810;;;19;57
78843;BME280;70542;53.774;-0.352;2023-09-07T23:24:27;101810;;;18;58
78843;BME280;70542;53.774;-0.352;2023-09-07T23:30:07;101800;;;16;64
78843;BME280;70542;53.774;-0.352;2023-09-07T23:35:46;101800;;;19;57
78843;BME280;70542;53.774;-0.352;2023-09-07T23:41:25;101780;;;20;54
78843;BME280;70542;53.774;-0.352;2023-09-07T23:47:04;101780;;;19;56
78843;BME280;70542;53.774;-0.352;2023-09-07T23:52:42;101770;;;18;56
78843;BME280;70542;53.774;-0.352;2023-09-07T23:58:21;101760;;;19;53
